Latest Weather Observations for Bellambi

IDN60901

Issued at 10:11 am EST Tuesday 26 May 2020 (issued every 10 minutes, with the page automatically refreshed every 10 minutes)

About weather observations | Map of Sydney area stations | Latest observations for Sydney area | Other Formats
Station Details ID: 068228 Name: BELLAMBI AWS Lat: -34.37 Lon: 150.93 Height: 10.0 m
Data from the previous 72 hours. | See also: Recent months at Bellambi
Date/Time
EST
Temp
°C
App
Temp
°C
Dew
Point
°C
Rel
Hum
%
Delta-T
°C
Wind Press
QNH
hPa
Press
MSL
hPa
Rain since
9am
mm
Dir  Spd
km/h
Gust
km/h
Spd
kts
Gust
kts
26/10:00am 14.9 11.7 13.1 89 1.0 SW 22 30 12 16 - - 0.0
26/09:30am 14.7 11.5 13.1 90 0.9 SW 22 30 12 16 - - 0.0
26/09:00am 14.0 11.1 12.9 93 0.6 SW 20 28 11 15 - - 6.0
26/08:48am 13.8 10.8 12.7 93 0.6 SW 20 28 11 15 - - 5.8
26/08:36am 13.5 10.5 12.4 93 0.6 SW 20 26 11 14 - - 5.6
26/08:30am 13.4 10.3 12.3 93 0.6 SW 20 30 11 16 - - 5.4
26/08:00am 13.2 9.7 12.1 93 0.6 SW 22 30 12 16 - - 5.4
26/07:30am 13.3 9.3 11.9 91 0.7 SW 24 41 13 22 - - 5.2
26/07:16am 13.7 8.2 11.8 88 1.0 SSW 32 43 17 23 - - 5.0
26/07:00am 13.8 9.0 11.8 88 1.1 SW 28 37 15 20 - - 4.6
26/06:30am 14.2 9.3 11.4 83 1.5 SW 28 39 15 21 - - 4.6
26/06:00am 14.1 9.6 11.4 84 1.4 SW 26 33 14 18 - - 4.6
26/05:30am 13.7 7.8 11.2 85 1.3 SSW 33 44 18 24 - - 4.6
26/05:00am 13.7 7.9 11.4 86 1.2 SW 33 41 18 22 - - 4.4
26/04:30am 13.9 7.6 11.2 84 1.4 SSW 35 48 19 26 - - 4.4
26/04:00am 13.6 7.8 11.5 87 1.1 SW 33 46 18 25 - - 4.4
26/03:30am 13.5 7.8 11.2 86 1.2 SW 32 44 17 24 - - 4.4
26/03:00am 13.4 8.2 11.6 89 1.0 SW 30 43 16 23 - - 4.4
26/02:30am 13.4 7.3 11.8 90 0.9 SSW 35 46 19 25 - - 4.4
26/02:00am 13.3 7.6 11.7 90 0.9 SW 33 44 18 24 - - 4.2
26/01:30am 12.9 6.3 11.5 91 0.7 SW 37 52 20 28 - - 4.2
26/01:00am 13.2 7.4 11.4 89 1.0 SW 33 44 18 24 - - 3.4
26/12:30am 13.3 6.8 11.7 90 0.9 SSW 37 46 20 25 - - 3.2
26/12:00am 14.0 6.8 11.9 87 1.1 SSW 41 57 22 31 - - 2.8
 
Date/Time
EST
Temp
°C
App
Temp
°C
Dew
Point
°C
Rel
Hum
%
Delta-T
°C
Wind Press
QNH
hPa
Press
MSL
hPa
Rain since
9am
mm
Dir  Spd
km/h
Gust
km/h
Spd
kts
Gust
kts
25/11:30pm 13.4 6.8 11.5 88 1.0 SW 37 57 20 31 - - 2.8
25/11:22pm 13.0 7.0 10.9 87 1.1 SW 33 52 18 28 - - 2.8
25/11:00pm 13.5 7.4 11.6 88 1.0 SSW 35 48 19 26 - - 2.8
25/10:44pm 13.8 8.7 12.0 89 1.0 SSW 30 48 16 26 - - 2.4
25/10:30pm 13.6 7.9 11.8 89 1.0 SSW 33 48 18 26 - - 2.0
25/10:00pm 13.7 6.0 11.6 87 1.1 SW 43 57 23 31 - - 1.6
25/09:30pm 13.8 6.6 11.8 88 1.1 SSW 41 52 22 28 - - 1.2
25/09:00pm 14.0 6.9 12.2 89 1.0 SSW 41 52 22 28 - - 0.6
25/08:36pm 14.1 7.3 11.8 86 1.2 SSW 39 59 21 32 - - 0.4
25/08:30pm 14.3 7.6 12.2 87 1.1 SW 39 50 21 27 - - 0.4
25/08:00pm 14.1 7.3 11.8 86 1.2 SSW 39 56 21 30 - - 0.2
25/07:41pm 14.1 7.7 12.0 87 1.1 SSW 37 56 20 30 - - 0.2
25/07:30pm 14.2 7.4 11.9 86 1.2 SSW 39 54 21 29 - - 0.2
25/07:00pm 14.3 8.0 12.2 87 1.1 SSW 37 50 20 27 - - 0.2
25/06:43pm 14.3 7.1 12.0 86 1.2 SSW 41 59 22 32 - - 0.2
25/06:30pm 14.3 6.8 12.2 87 1.1 SSW 43 57 23 31 - - 0.2
25/06:05pm 14.3 7.0 11.5 83 1.5 SSW 41 61 22 33 - - 0.0
25/06:00pm 14.3 7.4 11.6 84 1.4 SSW 39 54 21 29 - - 0.0
25/05:30pm 14.2 7.3 11.5 84 1.4 SW 39 52 21 28 - - 0.0
25/05:02pm 14.1 6.8 11.4 84 1.4 SSW 41 59 22 32 - - 0.0
25/05:00pm 14.2 6.9 11.7 85 1.3 SSW 41 54 22 29 - - 0.0
25/04:30pm 14.5 6.8 11.5 82 1.6 SSW 43 63 23 34 - - 0.0
25/04:00pm 14.8 6.8 11.0 78 2.0 SSW 44 65 24 35 - - 0.0
25/03:30pm 15.3 7.5 11.3 77 2.1 SSW 43 63 23 34 - - 0.0
25/03:00pm 15.4 7.5 10.8 74 2.4 SSW 43 61 23 33 - - 0.0
25/02:30pm 15.7 7.6 10.7 72 2.7 SSW 44 57 24 31 - - 0.0
25/02:00pm 16.1 8.2 11.5 74 2.5 SSW 44 63 24 34 - - 0.0
25/01:30pm 16.7 8.9 11.2 70 3.0 SSW 43 61 23 33 - - 0.0
25/01:16pm 16.1 8.1 10.6 70 2.9 SSW 43 65 23 35 - - 0.0
25/01:00pm 15.7 7.0 10.0 69 3.0 SW 46 63 25 34 - - 0.0
25/12:39pm 15.6 6.6 10.2 70 2.8 SSW 48 67 26 36 - - 0.0
25/12:30pm 15.8 7.2 10.3 70 2.9 SSW 46 63 25 34 - - 0.0
25/12:17pm 15.6 7.5 10.2 70 2.8 SSW 43 61 23 33 - - 0.0
25/12:00pm 15.5 7.3 10.5 72 2.6 SSW 44 57 24 31 - - 0.0
25/11:30am 15.1 6.1 10.3 73 2.5 SSW 48 67 26 36 - - 0.0
25/11:04am 15.1 6.9 10.5 74 2.4 SSW 44 63 24 34 - - 0.0
25/11:00am 15.5 7.2 11.3 76 2.3 SW 46 61 25 33 - - 0.0
25/10:44am 15.1 7.2 10.7 75 2.3 SSW 43 61 23 33 - - 0.0
25/10:30am 14.8 6.8 10.4 75 2.3 SW 43 59 23 32 - - 0.0
25/10:03am 14.4 7.0 10.0 75 2.3 SSW 39 61 21 33 - - 0.0
25/10:00am 14.4 7.4 9.8 74 2.4 SSW 37 52 20 28 - - 0.0
25/09:37am 14.4 7.9 10.2 76 2.2 SW 35 54 19 29 - - 0.0
25/09:30am 14.5 6.9 10.5 77 2.1 SSW 41 57 22 31 - - 0.0
25/09:01am 14.2 6.4 9.6 74 2.4 SW 41 59 22 32 - - 0.0
25/09:00am 14.4 7.0 10.0 75 2.3 SW 39 56 21 30 - - 0.0
25/08:45am 14.0 5.7 9.4 74 2.4 SW 43 61 23 33 - - 0.0
25/08:30am 14.0 6.5 9.6 75 2.3 SSW 39 56 21 30 - - 0.0
25/08:00am 13.7 6.7 8.5 71 2.6 SW 35 48 19 26 - - 0.0
25/07:30am 13.7 6.5 9.2 74 2.3 SW 37 50 20 27 - - 0.0
25/07:00am 13.6 5.2 9.1 74 2.3 SSW 43 61 23 33 - - 0.0
25/06:59am 13.6 5.2 8.9 73 2.4 SSW 43 61 23 33 - - 0.0
25/06:30am 13.6 5.1 8.7 72 2.5 SW 43 57 23 31 - - 0.0
25/06:16am 13.7 6.0 8.7 72 2.5 SSW 39 57 21 31 - - 0.0
25/06:00am 13.7 6.0 8.7 72 2.5 SW 39 54 21 29 - - 0.0
25/05:42am 13.7 5.6 8.5 71 2.6 SSW 41 61 22 33 - - 0.0
25/05:30am 13.5 5.7 8.4 71 2.5 SSW 39 50 21 27 - - 0.0
25/05:00am 13.9 5.4 8.7 71 2.6 SSW 43 59 23 32 - - 0.0
25/04:30am 13.4 6.7 8.3 71 2.5 SW 33 44 18 24 - - 0.0
25/04:00am 13.5 6.4 7.9 69 2.8 SW 35 54 19 29 - - 0.0
25/03:34am 13.5 6.4 7.9 69 2.8 SW 35 54 19 29 - - 0.0
25/03:30am 13.5 6.4 7.9 69 2.8 SW 35 50 19 27 - - 0.0
25/03:00am 13.2 6.3 7.2 67 2.9 SW 33 48 18 26 - - 0.0
25/02:30am 13.0 5.8 7.5 69 2.7 SW 35 50 19 27 - - 0.0
25/02:00am 13.1 5.2 8.0 71 2.5 SW 39 52 21 28 - - 0.0
25/01:30am 13.4 5.5 8.0 70 2.7 SW 39 52 21 28 - - 0.0
25/01:00am 13.8 7.1 8.2 69 2.8 SW 33 48 18 26 - - 0.0
25/12:50am 13.6 6.3 7.4 66 3.0 SW 35 54 19 29 - - 0.0
25/12:30am 13.4 5.1 7.8 69 2.8 SSW 41 54 22 29 - - 0.0
25/12:00am 13.6 5.4 8.0 69 2.8 SSW 41 54 22 29 - - 0.0
 
Date/Time
EST
Temp
°C
App
Temp
°C
Dew
Point
°C
Rel
Hum
%
Delta-T
°C
Wind Press
QNH
hPa
Press
MSL
hPa
Rain since
9am
mm
Dir  Spd
km/h
Gust
km/h
Spd
kts
Gust
kts
24/11:55pm 13.5 6.4 7.9 69 2.8 SSW 35 54 19 29 - - 0.0
24/11:30pm 13.3 6.6 7.5 68 2.8 SW 32 44 17 24 - - 0.0
24/11:00pm 13.8 6.3 7.8 67 3.0 SSW 37 48 20 26 - - 0.0
24/10:30pm 14.1 7.0 7.9 66 3.1 SSW 35 48 19 26 - - 0.0
24/10:00pm 13.6 7.7 7.4 66 3.0 SW 28 43 15 23 - - 0.0
24/09:30pm 13.6 7.2 8.4 71 2.6 SW 32 43 17 23 - - 0.0
24/09:00pm 13.8 6.8 8.4 70 2.7 SW 35 46 19 25 - - 0.0
24/08:30pm 14.6 6.8 8.1 65 3.2 SSW 39 54 21 29 - - 0.0
24/08:00pm 14.6 7.2 6.7 59 3.8 SW 35 46 19 25 - - 0.0
24/07:30pm 14.7 7.2 6.5 58 4.0 SW 35 48 19 26 - - 0.0
24/07:00pm 14.8 7.7 5.6 54 4.4 SSW 32 41 17 22 - - 0.0
24/06:30pm 14.9 7.9 6.0 55 4.3 SW 32 43 17 23 - - 0.0
24/06:00pm 15.1 7.3 6.7 57 4.1 SSW 37 50 20 27 - - 0.0
24/05:30pm 15.4 7.7 6.9 57 4.2 SSW 37 52 20 28 - - 0.0
24/05:00pm 15.5 7.8 7.3 58 4.1 SSW 37 56 20 30 - - 0.0
24/04:59pm 15.4 7.5 6.4 55 4.4 SSW 37 56 20 30 - - 0.0
24/04:30pm 16.1 7.3 7.3 56 4.4 SSW 43 56 23 30 - - 0.0
24/04:07pm 16.1 7.4 7.8 58 4.2 SSW 43 61 23 33 - - 0.0
24/04:00pm 16.1 8.0 8.6 61 3.8 SSW 41 52 22 28 - - 0.0
24/03:30pm 16.4 5.9 8.9 61 3.9 SSW 54 76 29 41 - - 0.0
24/03:00pm 16.5 4.6 8.7 60 4.0 SSW 61 80 33 43 - - 0.0
24/02:36pm 16.6 6.5 7.3 54 4.6 SSW 50 69 27 37 - - 0.0
24/02:30pm 16.6 6.2 7.8 56 4.4 SSW 52 65 28 35 - - 0.0
24/02:00pm 16.7 6.2 8.7 59 4.1 SSW 54 76 29 41 - - 0.0
24/01:42pm 17.1 7.6 8.3 56 4.5 SSW 48 69 26 37 - - 0.0
24/01:30pm 16.7 6.8 8.4 58 4.2 SSW 50 67 27 36 - - 0.0
24/01:00pm 17.2 8.2 8.9 58 4.3 SSW 46 74 25 40 - - 0.0
24/12:31pm 17.0 9.4 8.9 59 4.2 SSW 39 57 21 31 - - 0.0
24/12:30pm 16.9 8.8 8.8 59 4.2 SSW 41 57 22 31 - - 0.0
24/12:11pm 16.9 8.2 8.3 57 4.4 SSW 44 69 24 37 - - 0.0
24/12:00pm 16.5 7.5 8.7 60 4.0 SSW 46 61 25 33 - - 0.0
24/11:30am 16.4 7.1 9.1 62 3.8 SSW 48 67 26 36 - - 0.0
24/11:00am 16.4 5.8 9.8 65 3.5 SSW 56 78 30 42 - - 0.0
24/10:30am 16.5 7.5 10.1 66 3.4 SSW 48 69 26 37 - - 0.0
24/10:03am 16.5 8.6 10.8 69 3.0 SSW 43 61 23 33 - - 0.0
24/10:00am 16.2 8.0 10.3 68 3.1 SSW 44 59 24 32 - - 0.0
24/09:42am 15.4 8.3 9.5 68 3.0 SW 37 57 20 31 - - 0.0
24/09:30am 15.4 8.0 9.7 69 3.0 SW 39 52 21 28 - - 0.0
24/09:00am 16.0 6.9 9.9 67 3.2 SSW 48 67 26 36 - - 0.0
24/08:30am 15.6 7.6 9.1 65 3.3 SSW 41 61 22 33 - - 0.0
24/08:09am 15.3 7.7 9.2 67 3.1 SSW 39 57 21 31 - - 0.0
24/08:00am 15.3 7.4 9.2 67 3.1 SSW 41 56 22 30 - - 0.0
24/07:53am 15.2 7.5 8.7 65 3.3 SSW 39 57 21 31 - - 0.0
24/07:30am 15.2 7.0 8.2 63 3.5 SSW 41 52 22 28 - - 0.0
24/07:00am 14.9 6.6 7.9 63 3.5 SW 41 56 22 30 - - 0.0
24/06:30am 14.9 7.0 7.7 62 3.6 SSW 39 56 21 30 - - 0.0
24/06:00am 15.2 6.9 7.7 61 3.7 SSW 41 54 22 29 - - 0.0
24/05:36am 15.3 6.4 7.8 61 3.7 SSW 44 65 24 35 - - 0.0
24/05:30am 15.3 6.4 7.8 61 3.7 SSW 44 56 24 30 - - 0.0
24/05:00am 15.4 6.0 7.2 58 4.0 SSW 46 61 25 33 - - 0.0
24/04:30am 15.4 7.7 6.9 57 4.2 SSW 37 50 20 27 - - 0.0
24/04:00am 15.4 8.1 7.4 59 4.0 SSW 35 46 19 25 - - 0.0
24/03:34am 15.5 8.3 7.5 59 4.0 SSW 35 54 19 29 - - 0.0
24/03:30am 15.3 8.1 7.6 60 3.8 SSW 35 48 19 26 - - 0.0
24/03:00am 14.8 8.1 7.4 61 3.7 SW 32 41 17 22 - - 0.0
24/02:30am 14.8 7.9 7.4 61 3.7 SW 33 41 18 22 - - 0.0
24/02:00am 14.6 7.7 7.2 61 3.6 SW 33 43 18 23 - - 0.0
24/01:31am 14.6 8.6 7.2 61 3.6 SW 28 46 15 25 - - 0.0
24/01:30am 14.6 8.6 7.2 61 3.6 SW 28 41 15 22 - - 0.0
24/01:00am 14.4 8.0 7.0 61 3.6 SW 30 43 16 23 - - 0.0
24/12:46am 14.6 8.6 7.2 61 3.6 SW 28 46 15 25 - - 0.0
24/12:30am 14.7 9.1 7.0 60 3.8 SW 26 35 14 19 - - 0.0
24/12:00am 14.7 9.5 7.3 61 3.6 SW 24 35 13 19 - - 0.0
 
Date/Time
EST
Temp
°C
App
Temp
°C
Dew
Point
°C
Rel
Hum
%
Delta-T
°C
Wind Press
QNH
hPa
Press
MSL
hPa
Rain since
9am
mm
Dir  Spd
km/h
Gust
km/h
Spd
kts
Gust
kts
23/11:30pm 14.7 9.2 7.5 62 3.6 SW 26 39 14 21 - - 0.0
23/11:00pm 14.6 8.3 7.6 63 3.5 SW 30 43 16 23 - - 0.0
23/10:30pm 14.6 9.1 7.6 63 3.5 SW 26 37 14 20 - - 0.0
23/10:00pm 14.4 9.3 7.7 64 3.3 SW 24 37 13 20 - - 0.0
23/09:30pm 14.4 8.9 7.7 64 3.3 SW 26 37 14 20 - - 0.0
23/09:00pm 14.4 10.0 7.2 62 3.5 SW 20 32 11 17 - - 0.0
23/08:30pm 14.6 9.8 7.4 62 3.5 SW 22 39 12 21 - - 0.0
23/08:00pm 14.4 10.6 7.5 63 3.4 SW 17 26 9 14 - - 0.0
23/07:30pm 14.6 10.2 7.4 62 3.5 SW 20 35 11 19 - - 0.0
23/07:00pm 14.4 10.6 7.5 63 3.4 SW 17 24 9 13 - - 0.0
23/06:30pm 14.9 10.1 7.5 61 3.7 SW 22 35 12 19 - - 0.0
23/06:00pm 15.1 11.0 7.9 62 3.6 SW 19 28 10 15 - - 0.0
23/05:30pm 15.2 11.8 7.5 60 3.8 WSW 15 20 8 11 - - 0.0
23/05:00pm 15.4 12.0 7.7 60 3.8 WSW 15 26 8 14 - - 0.0
23/04:30pm 15.7 11.5 7.5 58 4.1 SW 19 35 10 19 - - 0.0
23/04:00pm 15.9 11.6 7.7 58 4.1 WSW 20 30 11 16 - - 0.0
23/03:30pm 16.0 11.7 8.0 59 4.0 SW 20 32 11 17 - - 0.0
23/03:00pm 16.1 11.5 8.1 59 4.0 WSW 22 32 12 17 - - 0.0
23/02:30pm 16.1 11.1 8.1 59 4.0 SW 24 37 13 20 - - 0.0
23/02:00pm 15.9 10.7 8.9 63 3.6 SW 26 33 14 18 - - 0.0
23/01:30pm 15.8 9.7 8.3 61 3.8 SW 30 43 16 23 - - 0.0
23/01:08pm 16.1 10.0 8.3 60 4.0 SW 30 48 16 26 - - 0.0
23/01:00pm 16.3 9.8 9.0 62 3.8 SW 33 48 18 26 - - 0.0
23/12:30pm 16.6 10.6 8.6 59 4.1 SW 30 44 16 24 - - 0.0
23/12:00pm 15.9 11.0 8.4 61 3.8 SW 24 33 13 18 - - 0.0
23/11:30am 16.0 10.3 8.2 60 3.9 SW 28 37 15 20 - - 0.0
23/11:10am 16.1 9.9 7.8 58 4.2 SW 30 50 16 27 - - 0.0
23/11:00am 16.5 10.3 9.2 62 3.8 SW 32 43 17 23 - - 0.0
23/10:30am 16.4 10.5 7.3 55 4.5 SW 28 44 15 24 - - 0.0

Latest Capital City Observations: Canberra | Sydney | Melbourne | Brisbane | Adelaide | Perth | Hobart | Darwin

Other formats

Comma delimited format used in spreadsheet applications
http://www.bom.gov.au/fwo/IDN60901/IDN60901.94749.axf

JavaScript Object Notation format (JSON) in row-major order
http://www.bom.gov.au/fwo/IDN60901/IDN60901.94749.json

Data quality

Most of these data are generated automatically and are frequently updated. Quality checks on data are not normally performed. It is possible for incorrect values to appear. Refer to information at About Latest Weather Observations and please check the disclaimer before using these data.